Terminal Aerodrome Forecast
Issued by NWS

Home | Current Version | Previous Version | Text Only | Print | Product List | Glossary On
Versions: 1 2 3 4 5 6 7 8 9 10 11 12 13 14
000
FTAK31 PANC 031747
TAFAEN
TAF
PAEN 031747Z 0318/0418 36008KT P6SM VCSH SCT050 BKN080
     FM032200 03008G12KT P6SM -SHRA SCT035 BKN060
     FM040100 11008KT P6SM -SHRA SCT045 BKN080
     FM041100 04005KT P6SM VCSH BKN040 OVC080=

USA.gov is the U.S. government's official web portal to all federal, state and local government web resources and services.